Time;durP1;ratioP1;P1;durP2;ratioP2;P2;SDS_P1;SDS_P2;PMS_P1;PMS_P2;Temp;Humidity;BMP_temperature;BMP_pressure;BME280_temperature;BME280_humidity;BME280_pressure;Samples;Min_cycle;Max_cycle;Signal;HPM_P1;HPM_P2
2023/08/31 00:00:41;;;;;;;;;;;22.00;1.00;;;;;;4976102;28;19930;-60
2023/08/31 00:03:09;;;;;;;;;;;22.00;1.00;;;;;;4976093;28;20306;-61
2023/08/31 00:05:39;;;;;;;;;;;22.00;1.00;;;;;;4976316;28;19930;-61
2023/08/31 00:08:06;;;;;;;;;;;22.00;1.00;;;;;;4976248;28;20380;-61
2023/08/31 00:10:33;;;;;;;;;;;22.00;1.00;;;;;;4976044;28;19926;-61
2023/08/31 00:13:02;;;;;;;;;;;22.00;1.00;;;;;;4975825;28;20309;-61
2023/08/31 00:15:29;;;;;;;;;;;22.00;1.00;;;;;;4975825;28;19926;-60
2023/08/31 00:17:55;;;;;;;;;;;22.00;1.00;;;;;;4976035;28;20409;-62
2023/08/31 00:20:22;;;;;;;;;;;22.00;1.00;;;;;;4976105;28;20020;-61
2023/08/31 00:22:49;;;;;;;;;;;22.00;1.00;;;;;;4975826;28;19930;-61
2023/08/31 00:25:16;;;;;;;;;;;21.90;1.00;;;;;;5042605;23;20143;-62
2023/08/31 00:27:43;;;;;;;;;;;21.90;1.00;;;;;;4976252;28;20334;-62
2023/08/31 00:30:11;;;;;;;;;;;21.90;1.00;;;;;;4958379;28;19926;-62
2023/08/31 00:32:39;;;;;;;;;;;21.90;1.00;;;;;;4958210;28;20024;-62
2023/08/31 00:35:08;;;;;;;;;;;21.90;1.00;;;;;;4972369;28;19926;-63
2023/08/31 00:37:35;;;;;;;;;;;21.90;1.00;;;;;;4954152;29;19961;-60
2023/08/31 00:40:04;;;;;;;;;;;21.90;1.00;;;;;;4965405;28;19962;-62
2023/08/31 00:42:32;;;;;;;;;;;21.90;1.00;;;;;;4956277;28;19981;-62
2023/08/31 00:44:59;;;;;;;;;;;21.90;1.00;;;;;;4954858;28;19943;-62
2023/08/31 00:47:26;;;;;;;;;;;21.90;1.00;;;;;;4954875;29;19930;-62
2023/08/31 00:49:53;;;;;;;;;;;21.90;1.00;;;;;;4954917;29;19926;-61
2023/08/31 00:52:20;;;;;;;;;;;21.90;1.00;;;;;;4954853;29;20395;-61
2023/08/31 00:54:48;;;;;;;;;;;21.90;1.00;;;;;;4954721;28;20398;-60
2023/08/31 00:57:15;;;;;;;;;;;21.90;1.00;;;;;;5080152;23;19984;-62
2023/08/31 00:59:42;;;;;;;;;;;21.90;1.00;;;;;;4973957;28;19968;-61
2023/08/31 01:02:08;;;;;;;;;;;21.90;1.00;;;;;;4975162;28;20298;-62
2023/08/31 01:04:41;;;;;;;;;;;21.90;1.00;;;;;;4974995;28;19937;-62
2023/08/31 01:07:17;;;;;;;;;;;21.90;1.00;;;;;;4970664;28;19954;-61
2023/08/31 01:09:59;;;;;;;;;;;21.80;1.00;;;;;;4955881;29;20211;-62
2023/08/31 01:12:33;;;;;;;;;;;21.80;1.00;;;;;;4944131;29;19950;-62
2023/08/31 01:15:04;;;;;;;;;;;21.80;1.00;;;;;;4954353;29;20422;-62
2023/08/31 01:17:31;;;;;;;;;;;21.80;1.00;;;;;;4954431;28;19933;-61
2023/08/31 01:20:00;;;;;;;;;;;21.80;1.00;;;;;;4954339;29;20347;-62
2023/08/31 01:22:55;;;;;;;;;;;21.80;1.00;;;;;;4955387;28;19982;-62
2023/08/31 01:25:22;;;;;;;;;;;21.80;1.00;;;;;;4952025;28;20030;-61
2023/08/31 01:27:49;;;;;;;;;;;21.80;1.00;;;;;;5050398;23;20020;-61
2023/08/31 01:30:15;;;;;;;;;;;21.80;1.00;;;;;;4992431;28;19930;-61
2023/08/31 01:32:45;;;;;;;;;;;21.80;1.00;;;;;;4993870;28;19968;-59
2023/08/31 01:35:14;;;;;;;;;;;21.80;1.00;;;;;;4993896;28;20443;-62
2023/08/31 01:37:42;;;;;;;;;;;21.80;1.00;;;;;;4993917;28;19967;-62
2023/08/31 01:40:12;;;;;;;;;;;21.70;1.00;;;;;;4993884;28;19926;-61
2023/08/31 01:42:39;;;;;;;;;;;21.70;1.00;;;;;;4993453;28;20387;-61
2023/08/31 01:45:07;;;;;;;;;;;21.70;1.00;;;;;;4992534;28;19978;-60
2023/08/31 01:47:34;;;;;;;;;;;21.70;1.00;;;;;;4993678;28;20346;-61
2023/08/31 01:50:00;;;;;;;;;;;21.70;1.00;;;;;;4992371;28;19926;-61
2023/08/31 01:52:27;;;;;;;;;;;21.70;1.00;;;;;;4993159;28;19980;-61
2023/08/31 01:54:54;;;;;;;;;;;21.70;1.00;;;;;;4992268;28;19926;-61
2023/08/31 01:57:22;;;;;;;;;;;21.70;1.00;;;;;;5033811;23;20306;-62
2023/08/31 02:00:09;;;;;;;;;;;21.70;1.00;;;;;;4959436;28;19926;-61
2023/08/31 02:02:42;;;;;;;;;;;21.70;1.00;;;;;;4973915;28;20024;-60
2023/08/31 02:05:09;;;;;;;;;;;21.70;1.00;;;;;;4972736;28;20448;-61
2023/08/31 02:07:36;;;;;;;;;;;21.70;1.00;;;;;;4973952;28;20033;-61
2023/08/31 02:10:06;;;;;;;;;;;21.70;1.00;;;;;;4974016;28;19946;-61
2023/08/31 02:12:36;;;;;;;;;;;21.70;1.00;;;;;;4973670;28;20267;-59
2023/08/31 02:15:06;;;;;;;;;;;21.70;1.00;;;;;;4988863;28;20609;-62
2023/08/31 02:17:34;;;;;;;;;;;21.70;1.00;;;;;;4972429;28;20029;-62
2023/08/31 02:20:04;;;;;;;;;;;21.60;1.00;;;;;;4972609;28;19981;-62
2023/08/31 02:22:31;;;;;;;;;;;21.60;1.00;;;;;;4972427;28;19926;-60
2023/08/31 02:24:58;;;;;;;;;;;21.60;1.00;;;;;;4973671;28;19930;-62
2023/08/31 02:27:25;;;;;;;;;;;21.60;1.00;;;;;;4972463;28;19930;-61
2023/08/31 02:29:51;;;;;;;;;;;21.60;1.00;;;;;;4972403;28;19930;-60
2023/08/31 02:32:18;;;;;;;;;;;21.60;1.00;;;;;;4973675;28;19937;-62
2023/08/31 02:34:45;;;;;;;;;;;21.60;1.00;;;;;;4956014;28;19926;-59
2023/08/31 02:37:12;;;;;;;;;;;21.60;1.00;;;;;;4973693;28;19926;-61
2023/08/31 02:39:40;;;;;;;;;;;21.60;1.00;;;;;;4973342;28;20385;-62
2023/08/31 02:42:08;;;;;;;;;;;21.60;1.00;;;;;;4973515;28;19976;-61
2023/08/31 02:44:35;;;;;;;;;;;21.60;1.00;;;;;;4965247;28;19926;-61
2023/08/31 02:47:02;;;;;;;;;;;21.60;1.00;;;;;;4970929;28;20290;-62
2023/08/31 02:49:28;;;;;;;;;;;21.60;1.00;;;;;;4973486;28;19930;-62
2023/08/31 02:51:55;;;;;;;;;;;21.60;1.00;;;;;;4973358;28;19926;-62
2023/08/31 02:54:22;;;;;;;;;;;21.60;1.00;;;;;;4971918;28;19926;-62
2023/08/31 02:56:49;;;;;;;;;;;21.60;1.00;;;;;;4972996;28;20394;-60
2023/08/31 02:59:17;;;;;;;;;;;21.50;1.00;;;;;;5157054;23;20424;-61
2023/08/31 03:01:46;;;;;;;;;;;21.50;1.00;;;;;;4991519;28;19988;-60
2023/08/31 03:04:13;;;;;;;;;;;21.50;1.00;;;;;;4995727;28;19929;-62
2023/08/31 03:06:40;;;;;;;;;;;21.50;1.00;;;;;;4997031;28;19925;-62
2023/08/31 03:09:07;;;;;;;;;;;21.50;1.00;;;;;;4995749;28;20029;-62
2023/08/31 03:11:34;;;;;;;;;;;21.50;1.00;;;;;;4996834;28;20472;-62
2023/08/31 03:14:01;;;;;;;;;;;21.50;1.00;;;;;;4995245;28;19925;-62
2023/08/31 03:16:27;;;;;;;;;;;21.50;1.00;;;;;;4996446;28;19969;-62
2023/08/31 03:18:55;;;;;;;;;;;21.50;1.00;;;;;;4995210;28;20366;-62
2023/08/31 03:21:22;;;;;;;;;;;21.50;1.00;;;;;;4995193;28;19925;-62
2023/08/31 03:23:49;;;;;;;;;;;21.50;1.00;;;;;;4995092;28;19961;-62
2023/08/31 03:26:15;;;;;;;;;;;21.50;1.00;;;;;;4996404;28;19926;-62
2023/08/31 03:28:43;;;;;;;;;;;21.50;1.00;;;;;;5097422;22;19924;-62
2023/08/31 03:31:10;;;;;;;;;;;21.50;1.00;;;;;;4988817;28;20397;-62
2023/08/31 03:33:37;;;;;;;;;;;21.50;1.00;;;;;;4994843;28;19933;-62
2023/08/31 03:36:04;;;;;;;;;;;21.50;1.00;;;;;;4996181;28;19925;-62
2023/08/31 03:38:37;;;;;;;;;;;21.50;1.00;;;;;;4994858;28;20039;-62
2023/08/31 03:41:04;;;;;;;;;;;21.40;1.00;;;;;;4994887;28;19937;-62
2023/08/31 03:43:31;;;;;;;;;;;21.50;1.00;;;;;;4994899;28;20362;-61
2023/08/31 03:45:59;;;;;;;;;;;21.50;1.00;;;;;;4994789;28;19930;-59
2023/08/31 03:48:25;;;;;;;;;;;21.40;1.00;;;;;;4994803;28;19973;-62
2023/08/31 03:50:53;;;;;;;;;;;21.40;1.00;;;;;;4994624;28;19926;-61
2023/08/31 03:53:21;;;;;;;;;;;21.40;1.00;;;;;;4994508;28;19933;-62
2023/08/31 03:55:50;;;;;;;;;;;21.40;1.00;;;;;;4994514;28;19933;-62
2023/08/31 03:58:17;;;;;;;;;;;21.40;1.00;;;;;;4994661;28;19932;-60
2023/08/31 04:00:50;;;;;;;;;;;21.40;1.00;;;;;;5086884;22;19925;-61
2023/08/31 04:03:18;;;;;;;;;;;21.40;1.00;;;;;;4994227;28;19950;-62
2023/08/31 04:05:46;;;;;;;;;;;21.40;1.00;;;;;;4994434;28;19932;-62
2023/08/31 04:08:13;;;;;;;;;;;21.40;1.00;;;;;;4974436;28;19966;-62
2023/08/31 04:10:40;;;;;;;;;;;21.40;1.00;;;;;;4975123;28;20412;-60
2023/08/31 04:13:07;;;;;;;;;;;21.40;1.00;;;;;;4981502;28;19968;-62
2023/08/31 04:15:34;;;;;;;;;;;21.40;1.00;;;;;;4976399;28;19972;-61
2023/08/31 04:18:01;;;;;;;;;;;21.40;1.00;;;;;;4994818;28;20404;-62
2023/08/31 04:20:28;;;;;;;;;;;21.40;1.00;;;;;;4985801;28;19926;-62
2023/08/31 04:22:55;;;;;;;;;;;21.40;1.00;;;;;;4993539;28;19944;-62
2023/08/31 04:25:22;;;;;;;;;;;21.40;1.00;;;;;;4993525;28;20016;-61
2023/08/31 04:27:49;;;;;;;;;;;21.40;1.00;;;;;;4991453;28;20473;-61
2023/08/31 04:30:16;;;;;;;;;;;21.40;1.00;;;;;;4994573;28;20020;-61
2023/08/31 04:32:44;;;;;;;;;;;21.40;1.00;;;;;;4995080;28;19930;-63
2023/08/31 04:35:11;;;;;;;;;;;21.30;1.00;;;;;;4995111;28;19964;-62
2023/08/31 04:37:38;;;;;;;;;;;21.40;1.00;;;;;;4995036;28;19961;-63
2023/08/31 04:40:05;;;;;;;;;;;21.30;1.00;;;;;;4994904;28;19953;-62
2023/08/31 04:42:31;;;;;;;;;;;21.30;1.00;;;;;;4995105;28;20382;-62
2023/08/31 04:44:58;;;;;;;;;;;21.30;1.00;;;;;;4994871;28;19988;-62
2023/08/31 04:47:25;;;;;;;;;;;21.30;1.00;;;;;;4994985;28;19926;-62
2023/08/31 04:49:52;;;;;;;;;;;21.40;1.00;;;;;;4994364;28;19930;-63
2023/08/31 04:52:19;;;;;;;;;;;21.30;1.00;;;;;;4992741;28;19932;-60
2023/08/31 04:54:45;;;;;;;;;;;21.30;1.00;;;;;;4992280;28;19926;-62
2023/08/31 04:57:12;;;;;;;;;;;21.30;1.00;;;;;;4991171;28;20378;-62
2023/08/31 04:59:39;;;;;;;;;;;21.30;1.00;;;;;;4994622;28;19932;-62
2023/08/31 05:02:06;;;;;;;;;;;21.30;1.00;;;;;;5420270;23;20018;-61
2023/08/31 05:04:32;;;;;;;;;;;21.30;1.00;;;;;;4993937;28;20020;-61
2023/08/31 05:06:59;;;;;;;;;;;21.30;1.00;;;;;;4994312;28;19925;-62
2023/08/31 05:09:26;;;;;;;;;;;21.30;1.00;;;;;;4994366;28;19926;-61
2023/08/31 05:11:53;;;;;;;;;;;21.30;1.00;;;;;;4993025;28;19926;-61
2023/08/31 05:14:19;;;;;;;;;;;21.30;1.00;;;;;;4994290;28;19925;-60
2023/08/31 05:16:47;;;;;;;;;;;21.30;1.00;;;;;;4994146;28;19925;-62
2023/08/31 05:19:14;;;;;;;;;;;21.30;1.00;;;;;;4994323;28;19972;-63
2023/08/31 05:21:41;;;;;;;;;;;21.30;1.00;;;;;;4994157;28;19926;-62
2023/08/31 05:24:07;;;;;;;;;;;21.30;1.00;;;;;;4986075;28;19948;-62
2023/08/31 05:26:34;;;;;;;;;;;21.30;1.00;;;;;;4994035;28;19941;-62
2023/08/31 05:29:03;;;;;;;;;;;21.20;1.00;;;;;;4994528;28;20020;-62
2023/08/31 05:31:30;;;;;;;;;;;21.30;1.00;;;;;;4993979;28;19925;-62
2023/08/31 05:33:57;;;;;;;;;;;21.20;1.00;;;;;;5303291;23;19945;-62
2023/08/31 05:36:24;;;;;;;;;;;21.30;1.00;;;;;;4974333;28;19933;-61
2023/08/31 05:38:52;;;;;;;;;;;21.30;1.00;;;;;;4974560;28;19926;-62
2023/08/31 05:41:18;;;;;;;;;;;21.20;1.00;;;;;;4974384;28;19930;-62
2023/08/31 05:43:45;;;;;;;;;;;21.20;1.00;;;;;;4974042;28;19933;-62
2023/08/31 05:46:12;;;;;;;;;;;21.20;1.00;;;;;;4974469;28;20481;-61
2023/08/31 05:48:39;;;;;;;;;;;21.20;1.00;;;;;;4974610;28;19926;-62
2023/08/31 05:51:06;;;;;;;;;;;21.20;1.00;;;;;;4974368;28;19933;-62
2023/08/31 05:53:33;;;;;;;;;;;21.30;1.00;;;;;;4974264;28;20394;-61
2023/08/31 05:56:03;;;;;;;;;;;21.30;1.00;;;;;;4974042;28;20355;-62
2023/08/31 05:58:32;;;;;;;;;;;21.30;1.00;;;;;;4974728;28;19933;-61
2023/08/31 06:01:03;;;;;;;;;;;21.20;1.00;;;;;;4974046;28;20310;-62
2023/08/31 06:03:30;;;;;;;;;;;21.20;1.00;;;;;;4973881;28;19962;-62
2023/08/31 06:08:31;;;;;;;;;;;21.20;1.00;;;;;;4952688;28;19997;-62
2023/08/31 06:10:58;;;;;;;;;;;21.30;1.00;;;;;;4954564;29;19978;-62
2023/08/31 06:13:25;;;;;;;;;;;21.20;1.00;;;;;;4954679;29;19926;-61
2023/08/31 06:15:52;;;;;;;;;;;21.20;1.00;;;;;;4954373;29;19926;-62
2023/08/31 06:18:18;;;;;;;;;;;21.20;1.00;;;;;;4954605;29;19930;-62
2023/08/31 06:20:45;;;;;;;;;;;21.20;1.00;;;;;;4954469;29;20329;-63
2023/08/31 06:23:12;;;;;;;;;;;21.20;1.00;;;;;;4946262;29;20029;-61
2023/08/31 06:25:39;;;;;;;;;;;21.20;1.00;;;;;;4954381;29;19933;-61
2023/08/31 06:28:08;;;;;;;;;;;21.20;1.00;;;;;;4954428;29;19926;-62
2023/08/31 06:30:35;;;;;;;;;;;21.20;1.00;;;;;;4954275;29;19926;-62
2023/08/31 06:33:02;;;;;;;;;;;21.20;1.00;;;;;;4953863;29;19927;-62
2023/08/31 06:35:29;;;;;;;;;;;21.20;1.00;;;;;;4954046;29;19989;-60
2023/08/31 06:37:55;;;;;;;;;;;21.20;1.00;;;;;;4953700;28;19927;-61
2023/08/31 06:40:22;;;;;;;;;;;21.20;1.00;;;;;;5089908;23;19932;-61
2023/08/31 06:42:49;;;;;;;;;;;21.20;1.00;;;;;;4991777;28;19933;-61
2023/08/31 06:45:16;;;;;;;;;;;21.20;1.00;;;;;;4992107;28;19961;-62
2023/08/31 06:47:42;;;;;;;;;;;21.20;1.00;;;;;;4992177;28;19932;-62
2023/08/31 06:50:09;;;;;;;;;;;21.20;1.00;;;;;;4991862;28;20325;-63
2023/08/31 06:52:36;;;;;;;;;;;21.20;1.00;;;;;;4991961;28;19965;-63
2023/08/31 06:55:03;;;;;;;;;;;21.20;1.00;;;;;;4991708;28;19926;-63
2023/08/31 06:57:30;;;;;;;;;;;21.20;1.00;;;;;;4991982;28;20390;-63
2023/08/31 06:59:57;;;;;;;;;;;21.20;1.00;;;;;;4991902;28;20020;-63
2023/08/31 07:02:25;;;;;;;;;;;21.20;1.00;;;;;;4991871;28;19930;-63
2023/08/31 07:04:52;;;;;;;;;;;21.20;1.00;;;;;;4991505;28;20028;-63
2023/08/31 07:07:19;;;;;;;;;;;21.20;1.00;;;;;;4991930;28;20451;-62
2023/08/31 07:09:46;;;;;;;;;;;21.10;1.00;;;;;;5050035;23;1862601;-63
2023/08/31 07:12:13;;;;;;;;;;;21.10;1.00;;;;;;4992578;28;20028;-62
2023/08/31 07:14:40;;;;;;;;;;;21.10;1.00;;;;;;4992519;28;19933;-62
2023/08/31 07:17:06;;;;;;;;;;;21.20;1.00;;;;;;4973085;28;19935;-62
2023/08/31 07:19:37;;;;;;;;;;;21.20;1.00;;;;;;4973080;28;19933;-62
2023/08/31 07:22:05;;;;;;;;;;;21.20;1.00;;;;;;4972921;28;19926;-62
2023/08/31 07:24:34;;;;;;;;;;;21.20;1.00;;;;;;4972828;28;19926;-62
2023/08/31 07:27:04;;;;;;;;;;;21.20;1.00;;;;;;4972944;28;19930;-62
2023/08/31 07:29:31;;;;;;;;;;;21.20;1.00;;;;;;4972922;28;20372;-63
2023/08/31 07:31:58;;;;;;;;;;;21.20;1.00;;;;;;4972889;28;19930;-62
2023/08/31 07:34:24;;;;;;;;;;;21.10;1.00;;;;;;4972776;28;20349;-63
2023/08/31 07:36:51;;;;;;;;;;;21.10;1.00;;;;;;4973052;28;19926;-61
2023/08/31 07:39:18;;;;;;;;;;;21.20;1.00;;;;;;4972993;28;19933;-63
2023/08/31 07:41:45;;;;;;;;;;;21.10;1.00;;;;;;5048707;22;19929;-62
2023/08/31 07:44:12;;;;;;;;;;;21.20;1.00;;;;;;4992251;28;20016;-60
2023/08/31 07:46:38;;;;;;;;;;;21.10;1.00;;;;;;4992283;28;19982;-62
2023/08/31 07:49:06;;;;;;;;;;;21.10;1.00;;;;;;4993055;28;19929;-62
2023/08/31 07:51:33;;;;;;;;;;;21.10;1.00;;;;;;4995984;28;19926;-61
2023/08/31 07:54:00;;;;;;;;;;;21.20;1.00;;;;;;4995945;28;19969;-61
2023/08/31 07:56:27;;;;;;;;;;;21.20;1.00;;;;;;4995591;28;20394;-61
2023/08/31 07:58:54;;;;;;;;;;;21.20;1.00;;;;;;4995668;28;19932;-61
2023/08/31 08:01:21;;;;;;;;;;;21.20;1.00;;;;;;4995579;28;19953;-61
2023/08/31 08:03:47;;;;;;;;;;;21.20;1.00;;;;;;4995379;28;19930;-62
2023/08/31 08:06:14;;;;;;;;;;;21.20;1.00;;;;;;4995518;28;19926;-61
2023/08/31 08:08:41;;;;;;;;;;;21.20;1.00;;;;;;4978208;28;19933;-62
2023/08/31 08:11:08;;;;;;;;;;;21.20;1.00;;;;;;4995689;28;20386;-62
2023/08/31 08:13:34;;;;;;;;;;;21.20;1.00;;;;;;4995422;28;20361;-61
2023/08/31 08:16:01;;;;;;;;;;;21.20;1.00;;;;;;4995342;28;19926;-61
2023/08/31 08:18:29;;;;;;;;;;;21.20;1.00;;;;;;4995363;28;19976;-61
2023/08/31 08:20:57;;;;;;;;;;;21.20;1.00;;;;;;4995336;28;20008;-62
2023/08/31 08:23:24;;;;;;;;;;;21.20;1.00;;;;;;4995237;28;19926;-61
2023/08/31 08:25:51;;;;;;;;;;;21.30;1.00;;;;;;4995348;28;19925;-61
2023/08/31 08:28:17;;;;;;;;;;;21.30;1.00;;;;;;4997735;28;20043;-61
2023/08/31 08:30:44;;;;;;;;;;;21.30;1.00;;;;;;4997529;28;20394;-59
2023/08/31 08:33:11;;;;;;;;;;;21.30;1.00;;;;;;4996299;28;20375;-61
2023/08/31 08:35:39;;;;;;;;;;;21.30;1.00;;;;;;4995525;28;19926;-61
2023/08/31 08:38:05;;;;;;;;;;;21.30;1.00;;;;;;4995337;28;19981;-60
2023/08/31 08:43:36;;;;;;;;;;;21.30;1.00;;;;;;5020435;23;19932;-61
2023/08/31 08:46:04;;;;;;;;;;;21.40;1.00;;;;;;4994818;28;19981;-60
2023/08/31 08:48:37;;;;;;;;;;;21.40;1.00;;;;;;4994922;28;20005;-61
2023/08/31 08:51:04;;;;;;;;;;;21.40;1.00;;;;;;4994763;28;19965;-62
2023/08/31 08:53:31;;;;;;;;;;;21.40;1.00;;;;;;4994950;28;19976;-62
2023/08/31 08:55:58;;;;;;;;;;;21.40;1.00;;;;;;4994801;28;19954;-61
2023/08/31 08:58:24;;;;;;;;;;;21.40;1.00;;;;;;4994740;28;19930;-62
2023/08/31 09:00:54;;;;;;;;;;;21.40;1.00;;;;;;4994357;28;20382;-62
2023/08/31 09:03:20;;;;;;;;;;;21.40;1.00;;;;;;4994311;28;20606;-60
2023/08/31 09:05:47;;;;;;;;;;;21.40;1.00;;;;;;4994689;28;19933;-61
2023/08/31 09:08:15;;;;;;;;;;;21.40;1.00;;;;;;4994662;28;19936;-63
2023/08/31 09:10:43;;;;;;;;;;;21.40;1.00;;;;;;4994573;28;19933;-61
2023/08/31 09:13:15;;;;;;;;;;;21.40;1.00;;;;;;4994405;28;19981;-62
2023/08/31 09:16:26;;;;;;;;;;;21.40;1.00;;;;;;4954282;29;20246;-62
2023/08/31 09:18:53;;;;;;;;;;;21.40;1.00;;;;;;4947760;28;19926;-63
2023/08/31 09:21:21;;;;;;;;;;;21.40;1.00;;;;;;4954768;29;20021;-63
2023/08/31 09:23:58;;;;;;;;;;;21.40;1.00;;;;;;4955655;28;19949;-61
2023/08/31 09:26:24;;;;;;;;;;;21.40;1.00;;;;;;4947653;28;20287;-63
2023/08/31 09:28:51;;;;;;;;;;;21.40;1.00;;;;;;4955745;29;19934;-64
2023/08/31 09:31:18;;;;;;;;;;;21.40;1.00;;;;;;4955435;29;19933;-62
2023/08/31 09:33:51;;;;;;;;;;;21.40;1.00;;;;;;4949776;29;19958;-62
2023/08/31 09:36:20;;;;;;;;;;;21.50;1.00;;;;;;4943984;29;20425;-62
2023/08/31 09:38:46;;;;;;;;;;;21.50;1.00;;;;;;4941942;29;19981;-63
2023/08/31 09:41:14;;;;;;;;;;;21.50;1.00;;;;;;4955281;29;20390;-63
2023/08/31 09:43:42;;;;;;;;;;;21.50;1.00;;;;;;4955207;28;20301;-62
2023/08/31 09:46:09;;;;;;;;;;;21.50;1.00;;;;;;5046856;22;20345;-62
2023/08/31 09:48:37;;;;;;;;;;;21.50;1.00;;;;;;4994442;28;20345;-64
2023/08/31 09:51:05;;;;;;;;;;;21.50;1.00;;;;;;4993863;28;19933;-62
2023/08/31 09:53:31;;;;;;;;;;;21.50;1.00;;;;;;4982114;28;19930;-61
2023/08/31 09:55:59;;;;;;;;;;;21.50;1.00;;;;;;4974506;28;19930;-62
2023/08/31 09:58:27;;;;;;;;;;;21.50;1.00;;;;;;4982671;28;19973;-62
2023/08/31 10:00:55;;;;;;;;;;;21.50;1.00;;;;;;4974245;28;20451;-62
2023/08/31 10:03:23;;;;;;;;;;;21.50;1.00;;;;;;4972943;28;20016;-62
2023/08/31 10:05:50;;;;;;;;;;;21.50;1.00;;;;;;4974516;28;19927;-62
2023/08/31 10:08:17;;;;;;;;;;;21.60;1.00;;;;;;4975800;28;20332;-62
2023/08/31 10:10:45;;;;;;;;;;;21.60;1.00;;;;;;4993352;28;19926;-61
2023/08/31 10:13:12;;;;;;;;;;;21.60;1.00;;;;;;4992659;28;20354;-60
2023/08/31 10:15:41;;;;;;;;;;;21.60;1.00;;;;;;5144030;23;20352;-62
2023/08/31 10:18:08;;;;;;;;;;;21.60;1.00;;;;;;4985337;28;19969;-62
2023/08/31 10:20:35;;;;;;;;;;;21.60;1.00;;;;;;4974245;28;19933;-62
2023/08/31 10:23:05;;;;;;;;;;;21.60;1.00;;;;;;4973812;28;19926;-62
2023/08/31 10:25:50;;;;;;;;;;;21.60;1.00;;;;;;4973876;28;19926;-62
2023/08/31 10:28:18;;;;;;;;;;;21.60;1.00;;;;;;4974181;28;19926;-63
2023/08/31 10:31:04;;;;;;;;;;;21.60;1.00;;;;;;4974021;28;19926;-63
2023/08/31 10:33:32;;;;;;;;;;;21.60;1.00;;;;;;4973864;28;20386;-62
2023/08/31 10:35:58;;;;;;;;;;;21.60;1.00;;;;;;4973998;28;19930;-62
2023/08/31 10:38:26;;;;;;;;;;;21.70;1.00;;;;;;4973912;28;20454;-61
2023/08/31 10:41:05;;;;;;;;;;;21.70;1.00;;;;;;4973634;28;19926;-61
2023/08/31 10:43:46;;;;;;;;;;;21.70;1.00;;;;;;4973566;28;19932;-62
2023/08/31 10:46:28;;;;;;;;;;;21.70;1.00;;;;;;5349144;23;19943;-61
2023/08/31 10:48:56;;;;;;;;;;;21.70;1.00;;;;;;4993123;28;19965;-62
2023/08/31 10:51:30;;;;;;;;;;;21.70;1.00;;;;;;4992782;28;19980;-62
2023/08/31 10:54:13;;;;;;;;;;;21.70;1.00;;;;;;4992847;28;19925;-62
2023/08/31 10:57:06;;;;;;;;;;;21.70;1.00;;;;;;4992858;28;19926;-62
2023/08/31 10:59:46;;;;;;;;;;;21.70;1.00;;;;;;4986476;28;19925;-62
2023/08/31 11:02:34;;;;;;;;;;;21.70;1.00;;;;;;4992799;28;20398;-62
2023/08/31 11:05:05;;;;;;;;;;;21.70;1.00;;;;;;4992715;28;19980;-62
2023/08/31 11:07:34;;;;;;;;;;;21.70;1.00;;;;;;4992687;28;20375;-62
2023/08/31 11:10:07;;;;;;;;;;;21.80;1.00;;;;;;4993105;28;19963;-62
2023/08/31 11:12:34;;;;;;;;;;;21.80;1.00;;;;;;4993377;28;19926;-62
2023/08/31 11:15:01;;;;;;;;;;;21.80;1.00;;;;;;4992987;28;19973;-62
2023/08/31 11:17:28;;;;;;;;;;;21.80;1.00;;;;;;4992636;28;20415;-62
2023/08/31 11:19:56;;;;;;;;;;;21.80;1.00;;;;;;5245680;23;19926;-62
2023/08/31 11:22:23;;;;;;;;;;;21.80;1.00;;;;;;4992571;28;20012;-63
2023/08/31 11:24:50;;;;;;;;;;;21.80;1.00;;;;;;4994347;28;19926;-62
2023/08/31 11:27:20;;;;;;;;;;;21.80;1.00;;;;;;4976972;28;19926;-62
2023/08/31 11:29:47;;;;;;;;;;;21.80;1.00;;;;;;4976953;28;19930;-62
2023/08/31 11:32:14;;;;;;;;;;;21.80;1.00;;;;;;4976889;28;19932;-62
2023/08/31 11:34:42;;;;;;;;;;;21.80;1.00;;;;;;4976466;28;19941;-62
2023/08/31 11:37:09;;;;;;;;;;;21.80;1.00;;;;;;4976866;28;19930;-62
2023/08/31 11:39:37;;;;;;;;;;;21.80;1.00;;;;;;4976716;28;19932;-62
2023/08/31 11:42:04;;;;;;;;;;;21.80;1.00;;;;;;4976730;28;19943;-62
2023/08/31 11:44:31;;;;;;;;;;;21.80;1.00;;;;;;4976273;28;20394;-62
2023/08/31 11:46:57;;;;;;;;;;;21.80;1.00;;;;;;4976966;28;19934;-61
2023/08/31 11:49:26;;;;;;;;;;;21.90;1.00;;;;;;4976432;28;20024;-61
2023/08/31 11:51:53;;;;;;;;;;;21.80;1.00;;;;;;5176740;23;19932;-62
2023/08/31 11:54:19;;;;;;;;;;;21.80;1.00;;;;;;4995464;28;19980;-62
2023/08/31 11:56:48;;;;;;;;;;;21.90;1.00;;;;;;4995887;28;19933;-62
2023/08/31 11:59:16;;;;;;;;;;;21.90;1.00;;;;;;4996061;28;19930;-62
2023/08/31 12:01:43;;;;;;;;;;;21.90;1.00;;;;;;4995837;28;19925;-62
2023/08/31 12:04:10;;;;;;;;;;;21.90;1.00;;;;;;4995680;28;19949;-62
2023/08/31 12:06:37;;;;;;;;;;;21.90;1.00;;;;;;4995820;28;20350;-63
2023/08/31 12:09:05;;;;;;;;;;;21.90;1.00;;;;;;4996007;28;20287;-63
2023/08/31 12:11:32;;;;;;;;;;;21.90;1.00;;;;;;4995482;28;19957;-62
2023/08/31 12:13:59;;;;;;;;;;;21.90;1.00;;;;;;4995667;28;19930;-62
2023/08/31 12:16:31;;;;;;;;;;;21.80;1.00;;;;;;4995391;28;19969;-61
2023/08/31 12:18:58;;;;;;;;;;;21.90;1.00;;;;;;4995376;28;20029;-62
2023/08/31 12:21:25;;;;;;;;;;;21.90;1.00;;;;;;4995957;28;19961;-61
2023/08/31 12:23:52;;;;;;;;;;;21.90;1.00;;;;;;4995138;28;19960;-61
2023/08/31 12:26:19;;;;;;;;;;;21.90;1.00;;;;;;4995262;28;20016;-62
2023/08/31 12:28:45;;;;;;;;;;;21.90;1.00;;;;;;4995509;28;19925;-62
2023/08/31 12:31:12;;;;;;;;;;;21.90;1.00;;;;;;5003371;28;19925;-62
2023/08/31 12:33:39;;;;;;;;;;;21.90;1.00;;;;;;4995070;28;19934;-62
2023/08/31 12:36:06;;;;;;;;;;;21.80;1.00;;;;;;5002437;28;20300;-61
2023/08/31 12:38:33;;;;;;;;;;;21.90;1.00;;;;;;4995198;28;19934;-62
2023/08/31 12:41:01;;;;;;;;;;;21.90;1.00;;;;;;4994847;28;20455;-61
2023/08/31 12:43:28;;;;;;;;;;;21.90;1.00;;;;;;4994865;28;20385;-62
2023/08/31 12:45:56;;;;;;;;;;;21.90;1.00;;;;;;4994935;28;19926;-62
2023/08/31 12:48:23;;;;;;;;;;;21.90;1.00;;;;;;4994808;28;19926;-61
2023/08/31 12:50:49;;;;;;;;;;;21.90;1.00;;;;;;4994816;28;19932;-62
2023/08/31 12:53:16;;;;;;;;;;;21.90;1.00;;;;;;5027513;22;20397;-63
2023/08/31 12:55:43;;;;;;;;;;;21.90;1.00;;;;;;4995182;28;19932;-63
2023/08/31 12:58:10;;;;;;;;;;;21.90;1.00;;;;;;4994618;28;19953;-62
2023/08/31 13:00:36;;;;;;;;;;;21.90;1.00;;;;;;4994657;28;19930;-61
2023/08/31 13:03:03;;;;;;;;;;;21.90;1.00;;;;;;4994642;28;19932;-61
2023/08/31 13:05:30;;;;;;;;;;;21.90;1.00;;;;;;4994441;28;20412;-62
2023/08/31 13:07:57;;;;;;;;;;;21.90;1.00;;;;;;4994726;28;19926;-62
2023/08/31 13:10:23;;;;;;;;;;;21.90;1.00;;;;;;4994435;28;19932;-62
2023/08/31 13:12:50;;;;;;;;;;;21.90;1.00;;;;;;4994192;28;19980;-62
2023/08/31 13:15:17;;;;;;;;;;;21.90;1.00;;;;;;4994372;28;19926;-62
2023/08/31 13:17:44;;;;;;;;;;;21.90;1.00;;;;;;4994418;28;19934;-63
2023/08/31 13:20:10;;;;;;;;;;;21.90;1.00;;;;;;4994234;28;19929;-62
2023/08/31 13:25:33;;;;;;;;;;;21.90;1.00;;;;;;5160586;23;20468;-62
2023/08/31 13:27:59;;;;;;;;;;;21.90;1.00;;;;;;4994231;28;19999;-62
2023/08/31 13:30:26;;;;;;;;;;;21.90;1.00;;;;;;4993673;28;20021;-61
2023/08/31 13:32:53;;;;;;;;;;;22.00;1.00;;;;;;4993911;28;19933;-62
2023/08/31 13:35:20;;;;;;;;;;;22.00;1.00;;;;;;4993981;28;19980;-62
2023/08/31 13:37:46;;;;;;;;;;;22.00;1.00;;;;;;4993939;28;20263;-61
2023/08/31 13:40:13;;;;;;;;;;;22.00;1.00;;;;;;4994164;28;20263;-62
2023/08/31 13:42:48;;;;;;;;;;;22.00;1.00;;;;;;4993846;28;20381;-61
2023/08/31 13:45:15;;;;;;;;;;;22.00;1.00;;;;;;4993888;28;19981;-62
2023/08/31 13:47:46;;;;;;;;;;;22.00;1.00;;;;;;4992965;28;19925;-62
2023/08/31 13:50:13;;;;;;;;;;;22.00;1.00;;;;;;4994164;28;19925;-63
2023/08/31 13:52:43;;;;;;;;;;;22.00;1.00;;;;;;4990282;28;19926;-62
2023/08/31 13:58:06;;;;;;;;;;;22.00;1.00;;;;;;5193179;23;20390;-62
2023/08/31 14:00:34;;;;;;;;;;;22.00;1.00;;;;;;4975513;28;19926;-63
2023/08/31 14:03:02;;;;;;;;;;;22.00;1.00;;;;;;4974601;28;19937;-61
2023/08/31 14:05:30;;;;;;;;;;;22.00;1.00;;;;;;4974205;28;19934;-62
2023/08/31 14:07:57;;;;;;;;;;;22.00;1.00;;;;;;4974381;28;20329;-63
2023/08/31 14:10:25;;;;;;;;;;;22.00;1.00;;;;;;4974207;28;19926;-62
2023/08/31 14:12:51;;;;;;;;;;;22.00;1.00;;;;;;4973851;28;19980;-62
2023/08/31 14:15:18;;;;;;;;;;;22.00;1.00;;;;;;4974037;28;19932;-62
2023/08/31 14:17:45;;;;;;;;;;;22.00;1.00;;;;;;4971682;28;19934;-63
2023/08/31 14:20:12;;;;;;;;;;;22.00;1.00;;;;;;4968095;28;19926;-64
2023/08/31 14:22:42;;;;;;;;;;;22.10;1.00;;;;;;4973742;28;19926;-63
2023/08/31 14:25:12;;;;;;;;;;;22.10;1.00;;;;;;4973982;28;20017;-63
2023/08/31 14:27:39;;;;;;;;;;;22.10;1.00;;;;;;4974017;28;19930;-64
2023/08/31 14:30:06;;;;;;;;;;;22.10;1.00;;;;;;5102234;22;19926;-61
2023/08/31 14:32:33;;;;;;;;;;;22.10;1.00;;;;;;4993303;28;19980;-62
2023/08/31 14:35:00;;;;;;;;;;;22.10;1.00;;;;;;4975900;28;19926;-63
2023/08/31 14:37:27;;;;;;;;;;;22.10;1.00;;;;;;4993703;28;20270;-63
2023/08/31 14:39:54;;;;;;;;;;;22.10;1.00;;;;;;4993072;28;20025;-63
2023/08/31 14:42:21;;;;;;;;;;;22.10;1.00;;;;;;4993166;28;20393;-63
2023/08/31 14:44:51;;;;;;;;;;;22.10;1.00;;;;;;4966022;28;19926;-62
2023/08/31 14:47:18;;;;;;;;;;;22.10;1.00;;;;;;4990696;28;20298;-62